Daily Tabular Data
[Select Refresh to Update]


4/23/19
Time         Wind Dir   Wind Spd  Wind Gust     Hum In   Humidity    Temp In       Temp  Raw Barom   Tot Rain Wind Chill Heat Ix In Heat Index  Dew Point  DailyRain   HourRain   RainRate
                            mph        mph          %          %         F         F         in         in         F         F         F         F         in         in      in/hr
12:00am            74          0          0         49         89       71.7       56.3      29.14      18.01       56.3       72.4       61.8       53.1       0.00       0.00      0.000
12:30am           117          0          0         50         89       71.2       55.9      29.15      18.01       55.9       72.0       61.4       52.7       0.00       0.00      0.000
1:00am            117          0          0         50         90       71.0       55.7      29.14      18.01       55.7       71.8       61.3       52.8       0.00       0.00      0.000
1:30am            117          0          0         50         90       70.3       54.9      29.13      18.01       54.9       71.1       60.5       52.0       0.00       0.00      0.000
2:00am             80          0          0         51         90       69.9       54.5      29.13      18.01       54.5       70.8       60.1       51.6       0.00       0.00      0.000
2:30am             80          0          0         51         89       69.5       54.6      29.12      18.01       54.6       70.4       60.1       51.4       0.00       0.00      0.000
3:00am            200          0          0         51         91       69.2       54.5      29.12      18.01       54.5       70.1       60.3       51.9       0.00       0.00      0.000
3:30am            227          0          0         51         90       68.9       53.7      29.12      18.01       53.7       69.8       59.3       50.8       0.00       0.00      0.000
4:00am            227          0          0         51         92       68.6       53.7      29.12      18.01       53.7       69.5       59.6       51.4       0.00       0.00      0.000
4:30am             63          0          4         51         89       68.4       53.6      29.12      18.01       53.6       69.3       59.1       50.4       0.00       0.00      0.000
5:00am            113          0          0         51         90       68.2       53.3      29.12      18.01       53.3       69.1       58.9       50.4       0.00       0.00      0.000
5:30am            135          0          1         52         92       68.0       54.9      29.12      18.01       54.9       69.0       60.8       52.6       0.00       0.00      0.000
6:00am            235          0          0         51         90       68.1       53.7      29.12      18.01       53.7       69.0       59.3       50.8       0.00       0.00      0.000
6:30am            103          0          3         52         91       67.9       53.0      29.13      18.01       53.0       68.9       58.8       50.4       0.00       0.00      0.000
7:00am            230          0          0         51         93       67.8       53.7      29.14      18.01       53.7       68.7       59.8       51.7       0.00       0.00      0.000
7:30am            237          0          0         51         89       67.8       57.8      29.14      18.01       57.8       68.7       63.3       54.6       0.00       0.00      0.000
8:00am            208          1          4         51         81       68.3       59.5      29.14      18.01       59.5       69.2       63.9       53.7       0.00       0.00      0.000
8:30am            115          3          3         50         77       69.7       62.5      29.14      18.01       62.5       70.5       66.3       55.2       0.00       0.00      0.000
9:00am            231          0          4         50         80       70.7       61.6      29.14      18.01       61.6       71.5       65.8       55.4       0.00       0.00      0.000
9:30am            229          1          7         49         82       71.3       61.6      29.14      18.01       61.6       72.0       66.1       56.1       0.00       0.00      0.000
10:00am           223          0          5         49         76       71.7       64.3      29.14      18.01       64.3       72.4       68.0       56.6       0.00       0.00      0.000
10:30am           236          1          8         49         74       72.1       66.7      29.14      18.01       66.7       72.8       70.1       58.2       0.00       0.00      0.000
11:00am           234          0          9         49         74       72.5       69.2      29.13      18.01       69.2       73.2       72.6       60.6       0.00       0.00      0.000
11:30am           243          2          7         49         62       73.0       72.6      29.13      18.01       72.6       73.7       74.6       58.8       0.00       0.00      0.000
12:00pm           230          4          8         49         59       73.4       73.8      29.11      18.01       73.8       74.1       75.5       58.6       0.00       0.00      0.000
12:30pm           231          0          9         49         57       73.9       75.4      29.11      18.01       75.4       74.6       76.9       59.1       0.00       0.00      0.000
1:00pm            234          3         12         49         56       74.4       76.7      29.10      18.01       76.7       75.1       78.1       59.8       0.00       0.00      0.000
1:30pm            229          2          9         48         56       74.8       76.8      29.10      18.01       76.8       75.4       78.2       59.9       0.00       0.00      0.000
2:00pm            214          0          8         48         54       75.3       79.6      29.09      18.01       79.6       75.9       80.8       61.5       0.00       0.00      0.000
2:30pm            184          3         11         48         55       75.8       78.7      29.09      18.01       78.7       76.4       80.0       61.2       0.00       0.00      0.000